Latest Weather Observations for Fawkner Beacon

IDV60901

Issued at 12:11 am EST Thursday 3 September 2026 (issued every 10 minutes, with the page automatically refreshed every 10 minutes)

About weather observations | Map of Melbourne area stations | Latest observations for Melbourne area | Other Formats
Station Details ID: 086376 Name: FAWKNER BEACON Lat: -37.95 Lon: 144.93 Height: 17.0 m
Data from the previous 72 hours. | See also: Recent months at Fawkner Beacon
Date/Time
EST
Temp
°C
App
Temp
°C
Dew
Point
°C
Rel
Hum
%
Delta-T
°C
Wind Press
QNH
hPa
Press
MSL
hPa
Rain since
9am
mm
Dir  Spd
km/h
Gust
km/h
Spd
kts
Gust
kts
03/12:00am - - - - - NNW 22 26 12 14 - - -
 
Date/Time
EST
Temp
°C
App
Temp
°C
Dew
Point
°C
Rel
Hum
%
Delta-T
°C
Wind Press
QNH
hPa
Press
MSL
hPa
Rain since
9am
mm
Dir  Spd
km/h
Gust
km/h
Spd
kts
Gust
kts
02/11:30pm - - - - - NNW 24 28 13 15 - - -
02/11:00pm - - - - - NNW 24 28 13 15 - - -
02/10:30pm - - - - - NNW 28 32 15 17 - - -
02/10:00pm - - - - - NNW 20 26 11 14 - - -
02/09:30pm - - - - - NNW 26 30 14 16 - - -
02/09:00pm - - - - - NW 24 30 13 16 - - -
02/08:30pm - - - - - SSE 7 9 4 5 - - -
02/08:00pm - - - - - SSE 2 7 1 4 - - -
02/07:30pm - - - - - CALM 0 0 0 0 - - -
02/07:00pm - - - - - CALM 0 4 0 2 - - -
02/06:30pm - - - - - SSE 6 7 3 4 - - -
02/06:00pm - - - - - ESE 6 9 3 5 - - -
02/05:30pm - - - - - S 9 13 5 7 - - -
02/05:00pm - - - - - SSW 13 17 7 9 - - -
02/04:30pm - - - - - SSW 13 17 7 9 - - -
02/04:00pm - - - - - SSW 17 20 9 11 - - -
02/03:30pm - - - - - SSW 13 17 7 9 - - -
02/03:00pm - - - - - SSW 17 22 9 12 - - -
02/02:30pm - - - - - SSW 17 20 9 11 - - -
02/02:00pm - - - - - SW 20 22 11 12 - - -
02/01:30pm - - - - - SW 17 22 9 12 - - -
02/01:00pm - - - - - SW 20 24 11 13 - - -
02/12:30pm - - - - - SW 22 28 12 15 - - -
02/12:00pm - - - - - SW 22 26 12 14 - - -
02/11:30am - - - - - WSW 24 28 13 15 - - -
02/11:00am - - - - - WSW 24 28 13 15 - - -
02/10:30am - - - - - WSW 22 26 12 14 - - -
02/10:00am - - - - - WSW 26 30 14 16 - - -
02/09:30am - - - - - W 24 28 13 15 - - -
02/09:00am - - - - - W 26 30 14 16 - - -
02/08:30am - - - - - WSW 32 39 17 21 - - -
02/08:00am - - - - - WSW 33 43 18 23 - - -
02/07:30am - - - - - WSW 35 41 19 22 - - -
02/07:00am - - - - - WSW 30 35 16 19 - - -
02/06:30am - - - - - W 26 30 14 16 - - -
02/06:00am - - - - - W 20 24 11 13 - - -
02/05:30am - - - - - WSW 26 32 14 17 - - -
02/05:00am - - - - - WSW 30 33 16 18 - - -
02/04:30am - - - - - WSW 33 41 18 22 - - -
02/04:00am - - - - - WSW 30 33 16 18 - - -
02/03:30am - - - - - WSW 28 32 15 17 - - -
02/03:00am - - - - - NNW 13 15 7 8 - - -
02/02:30am - - - - - NNW 15 22 8 12 - - -
02/02:00am - - - - - NNW 19 22 10 12 - - -
02/01:30am - - - - - NW 22 24 12 13 - - -
02/01:00am - - - - - NW 24 30 13 16 - - -
02/12:30am - - - - - NW 24 26 13 14 - - -
02/12:00am - - - - - NW 26 30 14 16 - - -
 
Date/Time
EST
Temp
°C
App
Temp
°C
Dew
Point
°C
Rel
Hum
%
Delta-T
°C
Wind Press
QNH
hPa
Press
MSL
hPa
Rain since
9am
mm
Dir  Spd
km/h
Gust
km/h
Spd
kts
Gust
kts
01/11:30pm - - - - - NW 28 30 15 16 - - -
01/11:00pm - - - - - NNW 32 43 17 23 - - -
01/10:30pm - - - - - NNW 35 43 19 23 - - -
01/10:00pm - - - - - NNW 44 57 24 31 - - -
01/09:30pm - - - - - NNW 37 46 20 25 - - -
01/09:00pm - - - - - NNW 35 46 19 25 - - -
01/08:30pm - - - - - N 43 50 23 27 - - -
01/08:00pm - - - - - NNW 33 39 18 21 - - -
01/07:47pm - - - - - NNW 33 43 18 23 - - -
01/07:36pm - - - - - N 32 50 17 27 - - -
01/07:30pm - - - - - N 30 35 16 19 - - -
01/07:00pm - - - - - N 37 44 20 24 - - -
01/06:30pm - - - - - N 32 35 17 19 - - -
01/06:00pm - - - - - N 33 39 18 21 - - -
01/05:30pm - - - - - NNW 35 43 19 23 - - -
01/05:00pm - - - - - NNW 32 41 17 22 - - -
01/04:30pm - - - - - NNW 33 48 18 26 - - -
01/04:00pm - - - - - NNW 39 48 21 26 - - -
01/03:30pm - - - - - NNW 41 54 22 29 - - -
01/03:15pm - - - - - N 50 63 27 34 - - -
01/03:04pm - - - - - N 44 63 24 34 - - -
01/03:00pm - - - - - N 46 63 25 34 - - -
01/02:30pm - - - - - N 48 61 26 33 - - -
01/02:00pm - - - - - NNW 43 52 23 28 - - -
01/01:30pm - - - - - NNW 44 54 24 29 - - -
01/01:00pm - - - - - NNW 46 57 25 31 - - -
01/12:30pm - - - - - NNW 52 63 28 34 - - -
01/12:00pm - - - - - NNW 44 57 24 31 - - -
01/11:48am - - - - - NNW 46 57 25 31 - - -
01/11:38am - - - - - NNW 44 63 24 34 - - -
01/11:30am - - - - - N 43 52 23 28 - - -
01/11:00am - - - - - N 44 54 24 29 - - -
01/10:30am - - - - - N 52 63 28 34 - - -
01/10:00am - - - - - N 48 61 26 33 - - -
01/09:30am - - - - - N 48 61 26 33 - - -
01/09:00am - - - - - N 44 50 24 27 - - -
01/08:30am - - - - - N 32 39 17 21 - - -
01/08:00am - - - - - N 32 35 17 19 - - -
01/07:30am - - - - - N 41 48 22 26 - - -
01/07:00am - - - - - N 39 46 21 25 - - -
01/06:30am - - - - - N 43 50 23 27 - - -
01/06:00am - - - - - N 43 50 23 27 - - -
01/05:30am - - - - - N 43 48 23 26 - - -
01/05:00am - - - - - N 41 48 22 26 - - -
01/04:59am - - - - - N 41 46 22 25 - - -
01/04:58am - - - - - N 41 46 22 25 - - -
01/04:57am - - - - - N 41 46 22 25 - - -
01/04:30am - - - - - N 37 43 20 23 - - -
01/04:00am - - - - - N 30 33 16 18 - - -
01/03:30am - - - - - N 32 33 17 18 - - -
01/03:00am - - - - - N 32 35 17 19 - - -
01/02:30am - - - - - N 24 28 13 15 - - -
01/02:00am - - - - - N 15 20 8 11 - - -
01/01:30am - - - - - NNW 11 13 6 7 - - -
01/01:00am - - - - - N 7 9 4 5 - - -
01/12:30am - - - - - N 7 9 4 5 - - -
01/12:00am - - - - - N 7 9 4 5 - - -
 
Date/Time
EST
Temp
°C
App
Temp
°C
Dew
Point
°C
Rel
Hum
%
Delta-T
°C
Wind Press
QNH
hPa
Press
MSL
hPa
Rain since
9am
mm
Dir  Spd
km/h
Gust
km/h
Spd
kts
Gust
kts
31/11:30pm - - - - - N 9 11 5 6 - - -
31/11:00pm - - - - - NNW 9 11 5 6 - - -
31/10:30pm - - - - - ESE 6 9 3 5 - - -
31/10:00pm - - - - - CALM 0 0 0 0 - - -
31/09:30pm - - - - - CALM 0 0 0 0 - - -
31/09:00pm - - - - - CALM 0 0 0 0 - - -
31/08:30pm - - - - - ESE 7 7 4 4 - - -
31/08:00pm - - - - - ESE 11 13 6 7 - - -
31/07:30pm - - - - - ESE 9 11 5 6 - - -
31/07:00pm - - - - - SE 9 11 5 6 - - -
31/06:30pm - - - - - SE 9 11 5 6 - - -
31/06:00pm - - - - - SE 9 11 5 6 - - -
31/05:30pm - - - - - SSE 9 11 5 6 - - -
31/05:00pm - - - - - SSE 7 9 4 5 - - -
31/04:30pm - - - - - SSE 9 11 5 6 - - -
31/04:00pm - - - - - SSE 9 11 5 6 - - -
31/03:30pm - - - - - SSE 9 11 5 6 - - -
31/03:00pm - - - - - SSE 11 13 6 7 - - -
31/02:30pm - - - - - S 11 15 6 8 - - -
31/02:00pm - - - - - S 9 11 5 6 - - -
31/01:30pm - - - - - SSW 9 11 5 6 - - -
31/01:00pm - - - - - SW 7 9 4 5 - - -
31/12:30pm - - - - - SW 9 13 5 7 - - -
31/12:00pm - - - - - SW 11 13 6 7 - - -
31/11:30am - - - - - WSW 13 15 7 8 - - -
31/11:00am - - - - - WSW 15 17 8 9 - - -
31/10:30am - - - - - WSW 17 20 9 11 - - -
31/10:00am - - - - - WSW 17 20 9 11 - - -
31/09:30am - - - - - WSW 19 22 10 12 - - -
31/09:00am - - - - - WSW 19 22 10 12 - - -
31/08:30am - - - - - WSW 20 24 11 13 - - -
31/08:00am - - - - - W 17 20 9 11 - - -
31/07:30am - - - - - W 17 20 9 11 - - -
31/07:00am - - - - - W 17 22 9 12 - - -
31/06:30am - - - - - WSW 15 22 8 12 - - -
31/06:00am - - - - - WSW 17 22 9 12 - - -
31/05:30am - - - - - - - - - - - - -
31/05:00am - - - - - WSW 20 22 11 12 - - -
31/04:30am - - - - - WSW 22 26 12 14 - - -
31/04:00am - - - - - WSW 22 24 12 13 - - -
31/03:30am - - - - - WSW 22 24 12 13 - - -
31/03:00am - - - - - WSW 17 20 9 11 - - -
31/02:30am - - - - - WNW 7 9 4 5 - - -
31/02:00am - - - - - WNW 7 9 4 5 - - -
31/01:30am - - - - - SSE 7 9 4 5 - - -
31/01:00am - - - - - SSE 6 7 3 4 - - -
31/12:30am - - - - - SSE 7 9 4 5 - - -

Latest Capital City Observations: Canberra | Sydney | Melbourne | Brisbane | Adelaide | Perth | Hobart | Darwin

Other formats

Comma delimited format used in spreadsheet applications
http://www.bom.gov.au/fwo/IDV60901/IDV60901.95872.axf

JavaScript Object Notation format (JSON) in row-major order
http://www.bom.gov.au/fwo/IDV60901/IDV60901.95872.json

Data quality

Most of these data are generated automatically and are frequently updated. Quality checks on data are not normally performed. It is possible for incorrect values to appear. Refer to information at About Latest Weather Observations and please check the disclaimer before using these data.